Ann Arbor, MI (48103)

7:59 PM EDT on May 24, 2017 (GMT -0400)
Ann Arbor W | | Change Station

Elev 1025 ft 42.26 °N, 83.79 °W | Updated 29 seconds ago

Overcast
Overcast
58.0 °F
Feels Like 58.0 °F
N
9.0
Wind Variable Wind from NNW

Today
High -- | Low -- °F
--% Chance of Precip.
Yesterday
High -- | Low -- °F
Precip. -- in
Pressure 29.52 in
Visibility 4.0 miles
Clouds Overcast 800 ft
Dew Point 55 °F
Humidity 90%
Rainfall 0.11 in
Snow Depth Not available.
6:05 AM 8:58 PM
Waning Crescent, 1% visible
METAR KARB 242353Z AUTO 05007KT 4SM BR OVC008 15/14 A2952 RMK AO2 RAB05E52 CIG 004V011 SLP994 P0003 60009 T01500144 10172 20150 56002
Pressure 29.52 in
Visibility 4.0 miles
Clouds Overcast 800 ft
Dew Point 55 °F
Humidity 90%
Rainfall 0.11 in
Snow Depth Not available.
6:05 AM 8:58 PM
Waning Crescent, 1% visible
METAR KARB 242353Z AUTO 05007KT 4SM BR OVC008 15/14 A2952 RMK AO2 RAB05E52 CIG 004V011 SLP994 P0003 60009 T01500144 10172 20150 56002

Get Severe Weather Alerts

Thanks for signing up!

Be on the lookout for a verification email in your inbox.

You'll start receiving the daily forecast at 6 AM.

×

10-Day Weather Forecast

Almanac

Astronomy

May. 24, 2017 Rise Set
Actual Time
Civil Twilight
Nautical Twilight
Astronomical Twilight
Moon
Length of Visible Light
Length of Day
Tomorrow will be .
, % of the Moon is Illuminated

Today's Extremes

State Highs State Lows

Community

WunderPhotos

Category 6

Welcome to Category 6. This is the collective home for Weather Underground's featured writeups by Dr. Jeff Masters (right), Bob Henson (left), Chris Burt, and other regular contributors.

Nearby

Air Quality

  Air Quality AQ Index Pollutant
Not available.

Snow Depth

Station Depth Elevation

Earthquake Activity

City Distance Mag. Time & Date
Minimum magnitude displayed is 2.5.

Coastal Water Temperatures

Place Temperature

Stations

Nearby Weather Stations

Station Location Temp. Windchill Dew Point Humidity Wind Precip. Elev Updated Type
                   

Watches & Warnings

There are currently no watches in effect.